sensor_id;sensor_type;location;lat;lon;timestamp;temperature;humidity
53146;DHT22;39042;53.150;5.898;2023-11-21T00:02:21;10.20;99.90
53146;DHT22;39042;53.150;5.898;2023-11-21T00:04:50;10.10;99.90
53146;DHT22;39042;53.150;5.898;2023-11-21T00:07:16;10.10;99.90
53146;DHT22;39042;53.150;5.898;2023-11-21T00:09:42;10.20;99.90
53146;DHT22;39042;53.150;5.898;2023-11-21T00:12:08;10.20;99.90
53146;DHT22;39042;53.150;5.898;2023-11-21T00:14:39;10.20;99.90
53146;DHT22;39042;53.150;5.898;2023-11-21T00:17:06;10.20;99.90
53146;DHT22;39042;53.150;5.898;2023-11-21T00:19:32;10.20;99.90
53146;DHT22;39042;53.150;5.898;2023-11-21T00:22:00;10.20;99.90
53146;DHT22;39042;53.150;5.898;2023-11-21T00:24:26;10.20;99.90
53146;DHT22;39042;53.150;5.898;2023-11-21T00:26:52;10.20;99.90
53146;DHT22;39042;53.150;5.898;2023-11-21T00:29:19;10.20;99.90
53146;DHT22;39042;53.150;5.898;2023-11-21T00:31:45;10.20;99.90
53146;DHT22;39042;53.150;5.898;2023-11-21T00:34:12;10.30;99.90
53146;DHT22;39042;53.150;5.898;2023-11-21T00:36:38;10.20;99.90
53146;DHT22;39042;53.150;5.898;2023-11-21T00:39:04;10.20;99.90
53146;DHT22;39042;53.150;5.898;2023-11-21T00:41:32;10.20;99.90
53146;DHT22;39042;53.150;5.898;2023-11-21T00:43:57;10.30;99.90
53146;DHT22;39042;53.150;5.898;2023-11-21T00:46:25;10.30;99.90
53146;DHT22;39042;53.150;5.898;2023-11-21T00:48:53;10.30;99.90
53146;DHT22;39042;53.150;5.898;2023-11-21T00:51:20;10.30;99.90
53146;DHT22;39042;53.150;5.898;2023-11-21T00:53:46;10.30;99.90
53146;DHT22;39042;53.150;5.898;2023-11-21T00:56:12;10.30;99.90
53146;DHT22;39042;53.150;5.898;2023-11-21T00:58:39;10.30;99.90
53146;DHT22;39042;53.150;5.898;2023-11-21T01:01:08;10.30;99.90
53146;DHT22;39042;53.150;5.898;2023-11-21T01:03:34;10.30;99.90
53146;DHT22;39042;53.150;5.898;2023-11-21T01:05:59;10.40;99.90
53146;DHT22;39042;53.150;5.898;2023-11-21T01:08:25;10.30;99.90
53146;DHT22;39042;53.150;5.898;2023-11-21T01:10:51;10.30;99.90
53146;DHT22;39042;53.150;5.898;2023-11-21T01:13:17;10.30;99.90
53146;DHT22;39042;53.150;5.898;2023-11-21T01:15:44;10.40;99.90
53146;DHT22;39042;53.150;5.898;2023-11-21T01:18:09;10.40;99.90
53146;DHT22;39042;53.150;5.898;2023-11-21T01:20:35;10.30;99.90
53146;DHT22;39042;53.150;5.898;2023-11-21T01:23:01;10.30;99.90
53146;DHT22;39042;53.150;5.898;2023-11-21T01:25:27;10.30;99.90
53146;DHT22;39042;53.150;5.898;2023-11-21T01:27:53;10.30;99.90
53146;DHT22;39042;53.150;5.898;2023-11-21T01:30:18;10.30;99.90
53146;DHT22;39042;53.150;5.898;2023-11-21T01:32:45;10.30;99.90
53146;DHT22;39042;53.150;5.898;2023-11-21T01:35:11;10.30;99.90
53146;DHT22;39042;53.150;5.898;2023-11-21T01:37:37;10.30;99.90
53146;DHT22;39042;53.150;5.898;2023-11-21T01:40:04;10.30;99.90
53146;DHT22;39042;53.150;5.898;2023-11-21T01:42:34;10.30;99.90
53146;DHT22;39042;53.150;5.898;2023-11-21T01:45:00;10.30;99.90
53146;DHT22;39042;53.150;5.898;2023-11-21T01:47:34;10.30;99.90
53146;DHT22;39042;53.150;5.898;2023-11-21T01:50:02;10.30;99.90
53146;DHT22;39042;53.150;5.898;2023-11-21T01:52:30;10.40;99.90
53146;DHT22;39042;53.150;5.898;2023-11-21T01:54:58;10.40;99.90
53146;DHT22;39042;53.150;5.898;2023-11-21T01:57:24;10.40;99.90
53146;DHT22;39042;53.150;5.898;2023-11-21T01:59:53;10.40;99.90
53146;DHT22;39042;53.150;5.898;2023-11-21T02:02:19;10.40;99.90
53146;DHT22;39042;53.150;5.898;2023-11-21T02:04:45;10.40;99.90
53146;DHT22;39042;53.150;5.898;2023-11-21T02:07:11;10.40;99.90
53146;DHT22;39042;53.150;5.898;2023-11-21T02:09:37;10.50;99.90
53146;DHT22;39042;53.150;5.898;2023-11-21T02:12:09;10.50;99.90
53146;DHT22;39042;53.150;5.898;2023-11-21T02:14:36;10.50;99.90
53146;DHT22;39042;53.150;5.898;2023-11-21T02:17:02;10.60;99.90
53146;DHT22;39042;53.150;5.898;2023-11-21T02:19:30;10.60;99.90
53146;DHT22;39042;53.150;5.898;2023-11-21T02:21:59;10.70;99.90
53146;DHT22;39042;53.150;5.898;2023-11-21T02:24:29;10.70;99.90
53146;DHT22;39042;53.150;5.898;2023-11-21T02:26:55;10.60;99.90
53146;DHT22;39042;53.150;5.898;2023-11-21T02:29:21;10.60;99.90
53146;DHT22;39042;53.150;5.898;2023-11-21T02:31:49;10.70;99.90
53146;DHT22;39042;53.150;5.898;2023-11-21T02:34:16;10.70;99.90
53146;DHT22;39042;53.150;5.898;2023-11-21T02:36:46;10.70;99.90
53146;DHT22;39042;53.150;5.898;2023-11-21T02:39:13;10.70;99.90
53146;DHT22;39042;53.150;5.898;2023-11-21T02:41:39;10.80;99.90
53146;DHT22;39042;53.150;5.898;2023-11-21T02:44:06;10.80;99.90
53146;DHT22;39042;53.150;5.898;2023-11-21T02:46:36;10.80;99.90
53146;DHT22;39042;53.150;5.898;2023-11-21T02:49:05;10.70;99.90
53146;DHT22;39042;53.150;5.898;2023-11-21T02:51:33;10.80;99.90
53146;DHT22;39042;53.150;5.898;2023-11-21T02:53:59;10.80;99.90
53146;DHT22;39042;53.150;5.898;2023-11-21T02:56:27;10.80;99.90
53146;DHT22;39042;53.150;5.898;2023-11-21T02:58:55;10.80;99.90
53146;DHT22;39042;53.150;5.898;2023-11-21T03:01:22;10.90;99.90
53146;DHT22;39042;53.150;5.898;2023-11-21T03:03:49;10.80;99.90
53146;DHT22;39042;53.150;5.898;2023-11-21T03:06:20;10.90;99.90
53146;DHT22;39042;53.150;5.898;2023-11-21T03:08:46;10.90;99.90
53146;DHT22;39042;53.150;5.898;2023-11-21T03:11:12;10.90;99.90
53146;DHT22;39042;53.150;5.898;2023-11-21T03:13:39;10.90;99.90
53146;DHT22;39042;53.150;5.898;2023-11-21T03:16:11;10.90;99.90
53146;DHT22;39042;53.150;5.898;2023-11-21T03:18:40;10.90;99.90
53146;DHT22;39042;53.150;5.898;2023-11-21T03:21:06;10.90;99.90
53146;DHT22;39042;53.150;5.898;2023-11-21T03:23:35;10.90;99.90
53146;DHT22;39042;53.150;5.898;2023-11-21T03:26:03;10.90;99.90
53146;DHT22;39042;53.150;5.898;2023-11-21T03:28:29;10.90;99.90
53146;DHT22;39042;53.150;5.898;2023-11-21T03:30:58;10.90;99.90
53146;DHT22;39042;53.150;5.898;2023-11-21T03:33:23;10.80;99.90
53146;DHT22;39042;53.150;5.898;2023-11-21T03:35:50;10.80;99.90
53146;DHT22;39042;53.150;5.898;2023-11-21T03:38:18;10.80;99.90
53146;DHT22;39042;53.150;5.898;2023-11-21T03:40:45;10.70;99.90
53146;DHT22;39042;53.150;5.898;2023-11-21T03:43:10;10.70;99.90
53146;DHT22;39042;53.150;5.898;2023-11-21T03:45:36;10.70;99.90
53146;DHT22;39042;53.150;5.898;2023-11-21T03:48:02;10.70;99.90
53146;DHT22;39042;53.150;5.898;2023-11-21T03:50:29;10.70;99.90
53146;DHT22;39042;53.150;5.898;2023-11-21T03:52:55;10.70;99.90
53146;DHT22;39042;53.150;5.898;2023-11-21T03:55:21;10.60;99.90
53146;DHT22;39042;53.150;5.898;2023-11-21T03:57:47;10.60;99.90
53146;DHT22;39042;53.150;5.898;2023-11-21T04:00:13;10.60;99.90
53146;DHT22;39042;53.150;5.898;2023-11-21T04:02:39;10.60;99.90
53146;DHT22;39042;53.150;5.898;2023-11-21T04:05:05;10.50;99.90
53146;DHT22;39042;53.150;5.898;2023-11-21T04:07:33;10.50;99.90
53146;DHT22;39042;53.150;5.898;2023-11-21T04:09:59;10.50;99.90
53146;DHT22;39042;53.150;5.898;2023-11-21T04:12:25;10.50;99.90
53146;DHT22;39042;53.150;5.898;2023-11-21T04:14:51;10.50;99.90
53146;DHT22;39042;53.150;5.898;2023-11-21T04:17:20;10.50;99.90
53146;DHT22;39042;53.150;5.898;2023-11-21T04:19:46;10.50;99.90
53146;DHT22;39042;53.150;5.898;2023-11-21T04:22:12;10.50;99.90
53146;DHT22;39042;53.150;5.898;2023-11-21T04:24:38;10.40;99.90
53146;DHT22;39042;53.150;5.898;2023-11-21T04:27:04;10.40;99.90
53146;DHT22;39042;53.150;5.898;2023-11-21T04:29:30;10.40;99.90
53146;DHT22;39042;53.150;5.898;2023-11-21T04:31:56;10.40;99.90
53146;DHT22;39042;53.150;5.898;2023-11-21T04:34:21;10.40;99.90
53146;DHT22;39042;53.150;5.898;2023-11-21T04:36:47;10.40;99.90
53146;DHT22;39042;53.150;5.898;2023-11-21T04:39:13;10.40;99.90
53146;DHT22;39042;53.150;5.898;2023-11-21T04:41:39;10.40;99.90
53146;DHT22;39042;53.150;5.898;2023-11-21T04:44:08;10.40;99.90
53146;DHT22;39042;53.150;5.898;2023-11-21T04:46:34;10.40;99.90
53146;DHT22;39042;53.150;5.898;2023-11-21T04:48:59;10.40;99.90
53146;DHT22;39042;53.150;5.898;2023-11-21T04:51:25;10.40;99.90
53146;DHT22;39042;53.150;5.898;2023-11-21T04:53:51;10.40;99.90
53146;DHT22;39042;53.150;5.898;2023-11-21T04:56:17;10.40;99.90
53146;DHT22;39042;53.150;5.898;2023-11-21T04:58:42;10.40;99.90
53146;DHT22;39042;53.150;5.898;2023-11-21T05:01:08;10.40;99.90
53146;DHT22;39042;53.150;5.898;2023-11-21T05:03:34;10.40;99.90
53146;DHT22;39042;53.150;5.898;2023-11-21T05:06:00;10.30;99.90
53146;DHT22;39042;53.150;5.898;2023-11-21T05:08:26;10.30;99.90
53146;DHT22;39042;53.150;5.898;2023-11-21T05:10:52;10.30;99.90
53146;DHT22;39042;53.150;5.898;2023-11-21T05:13:20;10.30;99.90
53146;DHT22;39042;53.150;5.898;2023-11-21T05:15:45;10.30;99.90
53146;DHT22;39042;53.150;5.898;2023-11-21T05:18:11;10.30;99.90
53146;DHT22;39042;53.150;5.898;2023-11-21T05:20:39;10.30;99.90
53146;DHT22;39042;53.150;5.898;2023-11-21T05:23:06;10.30;99.90
53146;DHT22;39042;53.150;5.898;2023-11-21T05:25:34;10.30;99.90
53146;DHT22;39042;53.150;5.898;2023-11-21T05:28:00;10.30;99.90
53146;DHT22;39042;53.150;5.898;2023-11-21T05:30:27;10.20;99.90
53146;DHT22;39042;53.150;5.898;2023-11-21T05:32:53;10.20;99.90
53146;DHT22;39042;53.150;5.898;2023-11-21T05:35:19;10.20;99.90
53146;DHT22;39042;53.150;5.898;2023-11-21T05:37:48;10.10;99.90
53146;DHT22;39042;53.150;5.898;2023-11-21T05:40:14;10.10;99.90
53146;DHT22;39042;53.150;5.898;2023-11-21T05:42:40;10.00;99.90
53146;DHT22;39042;53.150;5.898;2023-11-21T05:45:07;10.00;99.90
53146;DHT22;39042;53.150;5.898;2023-11-21T05:47:43;9.90;99.90
53146;DHT22;39042;53.150;5.898;2023-11-21T05:50:13;9.90;99.90
53146;DHT22;39042;53.150;5.898;2023-11-21T05:52:43;9.80;99.90
53146;DHT22;39042;53.150;5.898;2023-11-21T05:55:09;9.80;99.90
53146;DHT22;39042;53.150;5.898;2023-11-21T05:57:39;9.80;99.90
53146;DHT22;39042;53.150;5.898;2023-11-21T06:00:09;9.70;99.90
53146;DHT22;39042;53.150;5.898;2023-11-21T06:02:53;9.70;99.90
53146;DHT22;39042;53.150;5.898;2023-11-21T06:05:21;9.70;99.90
53146;DHT22;39042;53.150;5.898;2023-11-21T06:07:50;9.70;99.90
53146;DHT22;39042;53.150;5.898;2023-11-21T06:10:16;9.70;99.90
53146;DHT22;39042;53.150;5.898;2023-11-21T06:12:45;9.70;99.90
53146;DHT22;39042;53.150;5.898;2023-11-21T06:15:11;9.70;99.90
53146;DHT22;39042;53.150;5.898;2023-11-21T06:17:41;9.70;99.90
53146;DHT22;39042;53.150;5.898;2023-11-21T06:20:09;9.70;99.90
53146;DHT22;39042;53.150;5.898;2023-11-21T06:22:36;9.70;99.90
53146;DHT22;39042;53.150;5.898;2023-11-21T06:25:03;9.70;99.90
53146;DHT22;39042;53.150;5.898;2023-11-21T06:27:44;9.70;99.90
53146;DHT22;39042;53.150;5.898;2023-11-21T06:30:11;9.70;99.90
53146;DHT22;39042;53.150;5.898;2023-11-21T06:32:38;9.70;99.90
53146;DHT22;39042;53.150;5.898;2023-11-21T06:35:06;9.70;99.90
53146;DHT22;39042;53.150;5.898;2023-11-21T06:37:33;9.70;99.90
53146;DHT22;39042;53.150;5.898;2023-11-21T06:39:59;9.70;99.90
53146;DHT22;39042;53.150;5.898;2023-11-21T06:42:26;9.70;99.90
53146;DHT22;39042;53.150;5.898;2023-11-21T06:44:52;9.70;99.90
53146;DHT22;39042;53.150;5.898;2023-11-21T06:47:20;9.70;99.90
53146;DHT22;39042;53.150;5.898;2023-11-21T06:49:46;9.70;99.90
53146;DHT22;39042;53.150;5.898;2023-11-21T06:52:15;9.70;99.90
53146;DHT22;39042;53.150;5.898;2023-11-21T06:54:41;9.70;99.90
53146;DHT22;39042;53.150;5.898;2023-11-21T06:57:06;9.70;99.90
53146;DHT22;39042;53.150;5.898;2023-11-21T06:59:33;9.70;99.90
53146;DHT22;39042;53.150;5.898;2023-11-21T07:01:59;9.70;99.90
53146;DHT22;39042;53.150;5.898;2023-11-21T07:04:25;9.70;99.90
53146;DHT22;39042;53.150;5.898;2023-11-21T07:06:54;9.70;99.90
53146;DHT22;39042;53.150;5.898;2023-11-21T07:09:20;9.70;99.90
53146;DHT22;39042;53.150;5.898;2023-11-21T07:11:50;9.60;99.90
53146;DHT22;39042;53.150;5.898;2023-11-21T07:14:17;9.60;99.90
53146;DHT22;39042;53.150;5.898;2023-11-21T07:16:45;9.60;99.90
53146;DHT22;39042;53.150;5.898;2023-11-21T07:19:11;9.60;99.90
53146;DHT22;39042;53.150;5.898;2023-11-21T07:21:38;9.60;99.90
53146;DHT22;39042;53.150;5.898;2023-11-21T07:24:05;9.60;99.90
53146;DHT22;39042;53.150;5.898;2023-11-21T07:26:32;9.60;99.90
53146;DHT22;39042;53.150;5.898;2023-11-21T07:29:04;9.60;99.90
53146;DHT22;39042;53.150;5.898;2023-11-21T07:31:32;9.60;99.90
53146;DHT22;39042;53.150;5.898;2023-11-21T07:34:00;9.60;99.90
53146;DHT22;39042;53.150;5.898;2023-11-21T07:36:26;9.50;99.90
53146;DHT22;39042;53.150;5.898;2023-11-21T07:38:53;9.50;99.90
53146;DHT22;39042;53.150;5.898;2023-11-21T07:41:19;9.50;99.90
53146;DHT22;39042;53.150;5.898;2023-11-21T07:43:45;9.50;99.90
53146;DHT22;39042;53.150;5.898;2023-11-21T07:46:11;9.40;99.90
53146;DHT22;39042;53.150;5.898;2023-11-21T07:48:41;9.40;99.90
53146;DHT22;39042;53.150;5.898;2023-11-21T07:51:08;9.40;99.90
53146;DHT22;39042;53.150;5.898;2023-11-21T07:53:34;9.40;99.90
53146;DHT22;39042;53.150;5.898;2023-11-21T07:56:08;9.30;99.90
53146;DHT22;39042;53.150;5.898;2023-11-21T07:58:35;9.30;99.90
53146;DHT22;39042;53.150;5.898;2023-11-21T08:01:02;9.30;99.90
53146;DHT22;39042;53.150;5.898;2023-11-21T08:03:28;9.20;99.90
53146;DHT22;39042;53.150;5.898;2023-11-21T08:05:58;9.20;99.90
53146;DHT22;39042;53.150;5.898;2023-11-21T08:08:25;9.20;99.90
53146;DHT22;39042;53.150;5.898;2023-11-21T08:10:51;9.20;99.90
53146;DHT22;39042;53.150;5.898;2023-11-21T08:13:27;9.20;99.90
53146;DHT22;39042;53.150;5.898;2023-11-21T08:15:57;9.20;99.90
53146;DHT22;39042;53.150;5.898;2023-11-21T08:18:27;9.20;99.90
53146;DHT22;39042;53.150;5.898;2023-11-21T08:20:54;9.10;99.90
53146;DHT22;39042;53.150;5.898;2023-11-21T08:23:21;9.10;99.90
53146;DHT22;39042;53.150;5.898;2023-11-21T08:25:51;9.10;99.90
53146;DHT22;39042;53.150;5.898;2023-11-21T08:28:17;9.20;99.90
53146;DHT22;39042;53.150;5.898;2023-11-21T08:30:42;9.10;99.90
53146;DHT22;39042;53.150;5.898;2023-11-21T08:33:09;9.10;99.90
53146;DHT22;39042;53.150;5.898;2023-11-21T08:35:37;9.10;99.90
53146;DHT22;39042;53.150;5.898;2023-11-21T08:38:03;9.10;99.90
53146;DHT22;39042;53.150;5.898;2023-11-21T08:40:29;9.20;99.90
53146;DHT22;39042;53.150;5.898;2023-11-21T08:42:55;9.20;99.90
53146;DHT22;39042;53.150;5.898;2023-11-21T08:45:21;9.20;99.90
53146;DHT22;39042;53.150;5.898;2023-11-21T08:47:48;9.20;99.90
53146;DHT22;39042;53.150;5.898;2023-11-21T08:50:14;9.20;99.90
53146;DHT22;39042;53.150;5.898;2023-11-21T08:52:41;9.20;99.90
53146;DHT22;39042;53.150;5.898;2023-11-21T08:55:10;9.20;99.90
53146;DHT22;39042;53.150;5.898;2023-11-21T08:57:43;9.20;99.90
53146;DHT22;39042;53.150;5.898;2023-11-21T09:00:10;9.20;99.90
53146;DHT22;39042;53.150;5.898;2023-11-21T09:02:43;9.20;99.90
53146;DHT22;39042;53.150;5.898;2023-11-21T09:05:12;9.20;99.90
53146;DHT22;39042;53.150;5.898;2023-11-21T09:07:40;9.20;99.90
53146;DHT22;39042;53.150;5.898;2023-11-21T09:10:07;9.20;99.90
53146;DHT22;39042;53.150;5.898;2023-11-21T09:12:37;9.20;99.90
53146;DHT22;39042;53.150;5.898;2023-11-21T09:15:07;9.20;99.90
53146;DHT22;39042;53.150;5.898;2023-11-21T09:17:35;9.20;99.90
53146;DHT22;39042;53.150;5.898;2023-11-21T09:20:02;9.30;99.90
53146;DHT22;39042;53.150;5.898;2023-11-21T09:22:31;9.30;99.90
53146;DHT22;39042;53.150;5.898;2023-11-21T09:24:57;9.30;99.90
53146;DHT22;39042;53.150;5.898;2023-11-21T09:27:23;9.30;99.90
53146;DHT22;39042;53.150;5.898;2023-11-21T09:29:49;9.30;99.90
53146;DHT22;39042;53.150;5.898;2023-11-21T09:32:15;9.30;99.90
53146;DHT22;39042;53.150;5.898;2023-11-21T09:34:41;9.30;99.90
53146;DHT22;39042;53.150;5.898;2023-11-21T09:37:08;9.30;99.90
53146;DHT22;39042;53.150;5.898;2023-11-21T09:39:34;9.30;99.90
53146;DHT22;39042;53.150;5.898;2023-11-21T09:42:15;9.30;99.90
53146;DHT22;39042;53.150;5.898;2023-11-21T09:47:24;9.30;99.90
53146;DHT22;39042;53.150;5.898;2023-11-21T09:49:52;9.40;99.90
53146;DHT22;39042;53.150;5.898;2023-11-21T09:52:25;9.40;99.90
53146;DHT22;39042;53.150;5.898;2023-11-21T09:54:52;9.40;99.90
53146;DHT22;39042;53.150;5.898;2023-11-21T09:57:24;9.40;99.90
53146;DHT22;39042;53.150;5.898;2023-11-21T10:29:15;9.50;99.90
53146;DHT22;39042;53.150;5.898;2023-11-21T10:51:11;9.40;99.90
53146;DHT22;39042;53.150;5.898;2023-11-21T10:58:21;9.30;99.90
53146;DHT22;39042;53.150;5.898;2023-11-21T11:43:30;9.00;99.90
53146;DHT22;39042;53.150;5.898;2023-11-21T11:46:18;9.00;99.90
53146;DHT22;39042;53.150;5.898;2023-11-21T11:49:24;9.00;99.90
53146;DHT22;39042;53.150;5.898;2023-11-21T11:59:23;9.00;99.90
53146;DHT22;39042;53.150;5.898;2023-11-21T12:01:59;9.10;99.90
53146;DHT22;39042;53.150;5.898;2023-11-21T12:05:30;9.10;99.90
53146;DHT22;39042;53.150;5.898;2023-11-21T12:16:43;9.10;99.90
53146;DHT22;39042;53.150;5.898;2023-11-21T12:20:18;9.30;99.90
53146;DHT22;39042;53.150;5.898;2023-11-21T12:37:48;9.20;99.90
53146;DHT22;39042;53.150;5.898;2023-11-21T12:48:19;9.20;99.90
53146;DHT22;39042;53.150;5.898;2023-11-21T13:07:32;8.90;99.90
53146;DHT22;39042;53.150;5.898;2023-11-21T13:11:22;9.00;99.90
53146;DHT22;39042;53.150;5.898;2023-11-21T13:13:51;9.00;99.90
53146;DHT22;39042;53.150;5.898;2023-11-21T13:16:18;9.10;99.90
53146;DHT22;39042;53.150;5.898;2023-11-21T13:18:46;9.10;99.90
53146;DHT22;39042;53.150;5.898;2023-11-21T13:21:12;9.10;99.90
53146;DHT22;39042;53.150;5.898;2023-11-21T13:23:43;9.10;99.90
53146;DHT22;39042;53.150;5.898;2023-11-21T13:26:11;9.10;99.90
53146;DHT22;39042;53.150;5.898;2023-11-21T13:28:37;9.10;99.90
53146;DHT22;39042;53.150;5.898;2023-11-21T13:31:05;9.10;99.90
53146;DHT22;39042;53.150;5.898;2023-11-21T13:33:49;9.20;99.90
53146;DHT22;39042;53.150;5.898;2023-11-21T13:36:22;9.30;99.90
53146;DHT22;39042;53.150;5.898;2023-11-21T13:38:50;9.30;99.90
53146;DHT22;39042;53.150;5.898;2023-11-21T13:41:17;9.40;99.90
53146;DHT22;39042;53.150;5.898;2023-11-21T13:43:43;9.40;99.90
53146;DHT22;39042;53.150;5.898;2023-11-21T13:46:16;9.40;99.90
53146;DHT22;39042;53.150;5.898;2023-11-21T13:48:49;9.40;99.90
53146;DHT22;39042;53.150;5.898;2023-11-21T13:51:22;9.40;99.90
53146;DHT22;39042;53.150;5.898;2023-11-21T13:53:56;9.40;99.90
53146;DHT22;39042;53.150;5.898;2023-11-21T13:56:22;9.30;99.90
53146;DHT22;39042;53.150;5.898;2023-11-21T13:58:53;9.30;99.90
53146;DHT22;39042;53.150;5.898;2023-11-21T14:01:23;9.30;99.90
53146;DHT22;39042;53.150;5.898;2023-11-21T14:03:55;9.20;99.90
53146;DHT22;39042;53.150;5.898;2023-11-21T14:06:46;9.20;99.90
53146;DHT22;39042;53.150;5.898;2023-11-21T14:09:19;9.20;99.90
53146;DHT22;39042;53.150;5.898;2023-11-21T14:11:53;9.20;99.90
53146;DHT22;39042;53.150;5.898;2023-11-21T14:14:21;9.20;99.90
53146;DHT22;39042;53.150;5.898;2023-11-21T14:16:47;9.10;99.90
53146;DHT22;39042;53.150;5.898;2023-11-21T14:19:13;9.10;99.90
53146;DHT22;39042;53.150;5.898;2023-11-21T14:21:46;9.10;99.90
53146;DHT22;39042;53.150;5.898;2023-11-21T14:24:12;9.00;99.90
53146;DHT22;39042;53.150;5.898;2023-11-21T14:26:47;9.00;99.90
53146;DHT22;39042;53.150;5.898;2023-11-21T14:29:16;9.00;99.90
53146;DHT22;39042;53.150;5.898;2023-11-21T14:31:46;8.90;99.90
53146;DHT22;39042;53.150;5.898;2023-11-21T14:34:12;8.80;99.90
53146;DHT22;39042;53.150;5.898;2023-11-21T14:36:39;8.70;99.90
53146;DHT22;39042;53.150;5.898;2023-11-21T14:39:06;8.70;99.90
53146;DHT22;39042;53.150;5.898;2023-11-21T14:41:35;8.70;99.90
53146;DHT22;39042;53.150;5.898;2023-11-21T14:44:02;8.60;99.90
53146;DHT22;39042;53.150;5.898;2023-11-21T14:46:29;8.50;99.90
53146;DHT22;39042;53.150;5.898;2023-11-21T14:48:55;8.50;99.90
53146;DHT22;39042;53.150;5.898;2023-11-21T14:51:28;8.30;99.90
53146;DHT22;39042;53.150;5.898;2023-11-21T14:53:58;8.20;99.90
53146;DHT22;39042;53.150;5.898;2023-11-21T14:56:35;8.20;99.90
53146;DHT22;39042;53.150;5.898;2023-11-21T14:59:02;8.10;99.90
53146;DHT22;39042;53.150;5.898;2023-11-21T15:01:34;8.10;99.90
53146;DHT22;39042;53.150;5.898;2023-11-21T15:04:26;8.10;99.90
53146;DHT22;39042;53.150;5.898;2023-11-21T15:07:06;8.00;99.90
53146;DHT22;39042;53.150;5.898;2023-11-21T15:09:32;8.00;99.90
53146;DHT22;39042;53.150;5.898;2023-11-21T15:11:58;8.00;99.90
53146;DHT22;39042;53.150;5.898;2023-11-21T15:14:35;8.00;99.90
53146;DHT22;39042;53.150;5.898;2023-11-21T15:17:02;8.00;99.90
53146;DHT22;39042;53.150;5.898;2023-11-21T15:19:30;8.00;99.90
53146;DHT22;39042;53.150;5.898;2023-11-21T15:21:57;7.90;99.90
53146;DHT22;39042;53.150;5.898;2023-11-21T15:24:24;7.90;99.90
53146;DHT22;39042;53.150;5.898;2023-11-21T15:26:53;7.90;99.90
53146;DHT22;39042;53.150;5.898;2023-11-21T15:29:19;7.90;99.90
53146;DHT22;39042;53.150;5.898;2023-11-21T15:31:47;7.80;99.90
53146;DHT22;39042;53.150;5.898;2023-11-21T15:34:15;7.80;99.90
53146;DHT22;39042;53.150;5.898;2023-11-21T15:36:41;7.80;99.90
53146;DHT22;39042;53.150;5.898;2023-11-21T15:39:07;7.70;99.90
53146;DHT22;39042;53.150;5.898;2023-11-21T15:41:38;7.70;99.90
53146;DHT22;39042;53.150;5.898;2023-11-21T15:44:05;7.60;99.90
53146;DHT22;39042;53.150;5.898;2023-11-21T15:46:34;7.60;99.90
53146;DHT22;39042;53.150;5.898;2023-11-21T15:49:01;7.50;99.90
53146;DHT22;39042;53.150;5.898;2023-11-21T15:51:29;7.50;99.90
53146;DHT22;39042;53.150;5.898;2023-11-21T15:53:55;7.40;99.90
53146;DHT22;39042;53.150;5.898;2023-11-21T15:56:21;7.30;99.90
53146;DHT22;39042;53.150;5.898;2023-11-21T15:58:48;7.20;99.90
53146;DHT22;39042;53.150;5.898;2023-11-21T16:01:15;7.10;99.90
53146;DHT22;39042;53.150;5.898;2023-11-21T16:03:42;7.10;99.90
53146;DHT22;39042;53.150;5.898;2023-11-21T16:06:12;7.10;99.90
53146;DHT22;39042;53.150;5.898;2023-11-21T16:08:37;7.00;99.90
53146;DHT22;39042;53.150;5.898;2023-11-21T16:11:04;6.90;99.90
53146;DHT22;39042;53.150;5.898;2023-11-21T16:13:29;6.90;99.90
53146;DHT22;39042;53.150;5.898;2023-11-21T16:15:55;6.90;99.90
53146;DHT22;39042;53.150;5.898;2023-11-21T16:18:21;6.80;99.90
53146;DHT22;39042;53.150;5.898;2023-11-21T16:20:47;6.80;99.90
53146;DHT22;39042;53.150;5.898;2023-11-21T16:23:14;6.80;99.90
53146;DHT22;39042;53.150;5.898;2023-11-21T16:25:42;6.80;99.90
53146;DHT22;39042;53.150;5.898;2023-11-21T16:28:08;6.70;99.90
53146;DHT22;39042;53.150;5.898;2023-11-21T16:30:34;6.70;99.90
53146;DHT22;39042;53.150;5.898;2023-11-21T16:33:01;6.70;99.90
53146;DHT22;39042;53.150;5.898;2023-11-21T16:35:28;6.60;99.90
53146;DHT22;39042;53.150;5.898;2023-11-21T16:37:54;6.50;99.90
53146;DHT22;39042;53.150;5.898;2023-11-21T16:40:21;6.50;99.90
53146;DHT22;39042;53.150;5.898;2023-11-21T16:42:47;6.40;99.90
53146;DHT22;39042;53.150;5.898;2023-11-21T16:45:13;6.40;99.90
53146;DHT22;39042;53.150;5.898;2023-11-21T16:47:42;6.40;99.90
53146;DHT22;39042;53.150;5.898;2023-11-21T16:50:08;6.30;99.90
53146;DHT22;39042;53.150;5.898;2023-11-21T16:52:34;6.30;99.90
53146;DHT22;39042;53.150;5.898;2023-11-21T16:55:00;6.30;99.90
53146;DHT22;39042;53.150;5.898;2023-11-21T16:57:26;6.20;99.90
53146;DHT22;39042;53.150;5.898;2023-11-21T16:59:52;6.20;99.90
53146;DHT22;39042;53.150;5.898;2023-11-21T17:02:19;6.20;99.90
53146;DHT22;39042;53.150;5.898;2023-11-21T17:04:45;6.10;99.90
53146;DHT22;39042;53.150;5.898;2023-11-21T17:07:21;6.20;99.90
53146;DHT22;39042;53.150;5.898;2023-11-21T17:09:48;6.10;99.90
53146;DHT22;39042;53.150;5.898;2023-11-21T17:12:14;6.00;99.90
53146;DHT22;39042;53.150;5.898;2023-11-21T17:14:41;6.00;99.90
53146;DHT22;39042;53.150;5.898;2023-11-21T17:17:09;6.00;99.90
53146;DHT22;39042;53.150;5.898;2023-11-21T17:19:37;6.10;99.90
53146;DHT22;39042;53.150;5.898;2023-11-21T17:22:03;6.00;99.90
53146;DHT22;39042;53.150;5.898;2023-11-21T17:24:30;6.00;99.90
53146;DHT22;39042;53.150;5.898;2023-11-21T17:26:58;6.10;99.90
53146;DHT22;39042;53.150;5.898;2023-11-21T17:29:25;6.10;99.90
53146;DHT22;39042;53.150;5.898;2023-11-21T17:31:52;6.10;99.90
53146;DHT22;39042;53.150;5.898;2023-11-21T17:34:18;6.10;99.90
53146;DHT22;39042;53.150;5.898;2023-11-21T17:36:45;6.20;99.90
53146;DHT22;39042;53.150;5.898;2023-11-21T17:39:11;6.20;99.90
53146;DHT22;39042;53.150;5.898;2023-11-21T17:41:37;6.20;99.90
53146;DHT22;39042;53.150;5.898;2023-11-21T17:44:03;6.30;99.90
53146;DHT22;39042;53.150;5.898;2023-11-21T17:46:29;6.30;99.90
53146;DHT22;39042;53.150;5.898;2023-11-21T17:48:55;6.30;99.90
53146;DHT22;39042;53.150;5.898;2023-11-21T17:51:21;6.30;99.90
53146;DHT22;39042;53.150;5.898;2023-11-21T17:53:47;6.40;99.90
53146;DHT22;39042;53.150;5.898;2023-11-21T17:56:15;6.40;99.90
53146;DHT22;39042;53.150;5.898;2023-11-21T17:58:41;6.50;99.90
53146;DHT22;39042;53.150;5.898;2023-11-21T18:01:08;6.50;99.90
53146;DHT22;39042;53.150;5.898;2023-11-21T18:03:34;6.60;99.90
53146;DHT22;39042;53.150;5.898;2023-11-21T18:06:00;6.50;99.90
53146;DHT22;39042;53.150;5.898;2023-11-21T18:08:26;6.50;99.90
53146;DHT22;39042;53.150;5.898;2023-11-21T18:10:54;6.50;99.90
53146;DHT22;39042;53.150;5.898;2023-11-21T18:25:34;6.40;99.90
53146;DHT22;39042;53.150;5.898;2023-11-21T18:43:36;6.30;99.90
53146;DHT22;39042;53.150;5.898;2023-11-21T18:47:04;6.20;99.90
53146;DHT22;39042;53.150;5.898;2023-11-21T19:08:41;5.70;99.90
53146;DHT22;39042;53.150;5.898;2023-11-21T19:30:43;5.40;99.90